Terminal Aerodrome Forecast
Issued by NWS

Home | Current Version | Previous Version | Graphics & Text | Print | Product List | Glossary On
Versions: 1 2 3 4 5 6 7 8 9 10 11 12 13 14 15 16 17 18 19 20
000
FTUS43 KTOP 260500
TAFFOE
TAF
KFOE 260528Z 2606/2706 19009KT P6SM OVC080
     FM260830 25012KT P6SM -SHRA SCT025 OVC050
     FM261030 27011KT P6SM SCT025 BKN050
     FM261400 31020G30KT P6SM BKN025
     FM262000 32016G25KT P6SM SCT028
     FM270100 32007KT P6SM SKC=

USA.gov is the U.S. government's official web portal to all federal, state and local government web resources and services.